createdAt,value
2022-10-10T00:00:33.262Z,1.83
2022-10-10T00:03:20.848Z,1.87
2022-10-10T00:06:08.758Z,1.80
2022-10-10T00:08:55.580Z,2.30
2022-10-10T00:11:42.420Z,1.80
2022-10-10T00:14:32.386Z,2.17
2022-10-10T00:17:20.456Z,2.33
2022-10-10T00:20:08.305Z,1.83
2022-10-10T00:22:54.985Z,1.73
2022-10-10T00:25:41.619Z,1.83
2022-10-10T00:28:28.647Z,1.87
2022-10-10T00:31:15.460Z,2.00
2022-10-10T00:34:03.368Z,2.20
2022-10-10T00:36:50.125Z,2.00
2022-10-10T00:39:36.798Z,2.07
2022-10-10T00:42:23.694Z,1.97
2022-10-10T00:45:27.456Z,1.90
2022-10-10T00:48:16.936Z,2.20
2022-10-10T00:51:09.152Z,1.90
2022-10-10T00:53:59.227Z,1.77
2022-10-10T00:56:51.451Z,2.53
2022-10-10T00:59:40.151Z,2.17
2022-10-10T01:02:26.943Z,2.40
2022-10-10T01:05:13.727Z,2.30
2022-10-10T01:08:03.424Z,1.70
2022-10-10T01:11:10.879Z,1.90
2022-10-10T01:14:06.315Z,2.03
2022-10-10T01:17:03.535Z,1.67
2022-10-10T01:20:36.625Z,2.03
2022-10-10T01:23:58.529Z,2.07
2022-10-10T01:27:12.180Z,2.33
2022-10-10T01:30:03.927Z,2.20
2022-10-10T01:32:54.996Z,1.83
2022-10-10T01:35:51.899Z,2.10
2022-10-10T01:38:50.648Z,2.40
2022-10-10T01:41:43.197Z,2.10
2022-10-10T01:44:29.929Z,2.07
2022-10-10T01:47:17.950Z,2.10
2022-10-10T01:50:09.151Z,1.70
2022-10-10T01:53:08.694Z,2.00
2022-10-10T01:56:01.962Z,1.90
2022-10-10T01:59:09.513Z,2.50
2022-10-10T02:02:04.011Z,1.90
2022-10-10T02:04:58.282Z,2.03
2022-10-10T02:07:50.739Z,2.20
2022-10-10T02:10:43.528Z,1.67
2022-10-10T02:13:34.387Z,2.40
2022-10-10T02:16:25.624Z,2.47
2022-10-10T02:19:16.760Z,2.20
2022-10-10T02:22:06.976Z,2.13
2022-10-10T02:24:54.472Z,2.60
2022-10-10T02:27:46.251Z,2.23
2022-10-10T02:30:35.503Z,2.30
2022-10-10T02:33:29.250Z,2.43
2022-10-10T02:36:19.016Z,2.10
2022-10-10T02:39:08.134Z,2.17
2022-10-10T02:41:55.151Z,2.20
2022-10-10T02:44:43.021Z,2.27
2022-10-10T02:47:29.451Z,2.07
2022-10-10T02:50:16.029Z,2.57
2022-10-10T02:53:03.176Z,2.13
2022-10-10T02:55:51.243Z,1.90
2022-10-10T02:58:38.074Z,2.07
2022-10-10T03:01:25.009Z,2.70
2022-10-10T03:04:12.148Z,2.70
2022-10-10T03:06:58.435Z,2.50
2022-10-10T03:09:45.102Z,2.50
2022-10-10T03:12:33.426Z,2.70
2022-10-10T03:15:20.867Z,2.70
2022-10-10T03:18:07.623Z,2.33
2022-10-10T03:20:56.269Z,2.77
2022-10-10T03:23:42.886Z,2.10
2022-10-10T03:26:29.616Z,2.93
2022-10-10T03:29:17.823Z,2.90
2022-10-10T03:32:06.916Z,2.30
2022-10-10T03:34:56.887Z,3.00
2022-10-10T03:37:44.107Z,3.17
2022-10-10T03:40:31.290Z,3.40
2022-10-10T03:43:18.097Z,2.30
2022-10-10T03:46:06.248Z,3.23
2022-10-10T03:48:52.719Z,3.20
2022-10-10T03:51:39.701Z,2.50
2022-10-10T03:54:26.575Z,2.70
2022-10-10T03:57:13.244Z,2.63
2022-10-10T04:00:00.109Z,3.13
2022-10-10T04:02:48.566Z,2.30
2022-10-10T04:05:36.332Z,3.00
2022-10-10T04:08:22.903Z,3.80
2022-10-10T04:11:09.839Z,3.10
2022-10-10T04:13:56.854Z,2.70
2022-10-10T04:16:43.686Z,3.17
2022-10-10T04:19:31.849Z,3.27
2022-10-10T04:22:18.545Z,2.77
2022-10-10T04:25:06.469Z,3.10
2022-10-10T04:27:57.241Z,2.73
2022-10-10T04:30:47.542Z,3.37
2022-10-10T04:33:34.009Z,2.80
2022-10-10T04:36:23.071Z,3.10
2022-10-10T04:39:11.421Z,2.83
2022-10-10T04:41:57.896Z,2.70
2022-10-10T04:44:46.278Z,3.00
2022-10-10T04:47:32.998Z,3.03
2022-10-10T04:50:19.753Z,2.97
2022-10-10T04:53:07.873Z,2.87
2022-10-10T04:55:55.054Z,3.17
2022-10-10T04:58:41.734Z,3.57
2022-10-10T05:01:28.551Z,3.43
2022-10-10T05:04:15.385Z,2.80
2022-10-10T05:07:02.159Z,3.13
2022-10-10T05:09:50.328Z,3.10
2022-10-10T05:12:37.032Z,3.40
2022-10-10T05:15:24.650Z,3.60
2022-10-10T05:18:11.452Z,3.43
2022-10-10T05:21:02.658Z,3.47
2022-10-10T05:23:50.552Z,3.30
2022-10-10T05:26:42.915Z,3.83
2022-10-10T05:29:29.807Z,3.63
2022-10-10T05:32:17.555Z,3.57
2022-10-10T05:35:06.011Z,3.40
2022-10-10T05:37:52.829Z,4.30
2022-10-10T05:40:41.154Z,3.27
2022-10-10T05:43:29.472Z,3.30
2022-10-10T05:46:16.411Z,3.53
2022-10-10T05:49:03.167Z,3.10
2022-10-10T05:51:50.024Z,3.40
2022-10-10T05:54:37.125Z,4.00
2022-10-10T05:57:23.712Z,3.30
2022-10-10T06:00:13.730Z,3.50
2022-10-10T06:03:00.453Z,3.47
2022-10-10T06:05:49.176Z,3.97
2022-10-10T06:08:36.101Z,4.23
2022-10-10T06:11:25.173Z,3.47
2022-10-10T06:14:11.883Z,3.87
2022-10-10T06:16:59.740Z,3.90
2022-10-10T06:19:46.733Z,5.13
2022-10-10T06:22:33.417Z,5.30
2022-10-10T06:25:38.875Z,3.80
2022-10-10T06:28:26.371Z,4.60
2022-10-10T06:31:14.621Z,4.57
2022-10-10T06:34:02.762Z,4.57
2022-10-10T06:36:50.723Z,4.03
2022-10-10T06:39:37.220Z,4.37
2022-10-10T06:42:24.047Z,4.37
2022-10-10T06:45:16.790Z,4.20
2022-10-10T06:48:03.499Z,3.87
2022-10-10T06:50:59.739Z,3.30
2022-10-10T06:53:47.365Z,3.50
2022-10-10T06:56:34.033Z,3.87
2022-10-10T06:59:20.967Z,3.70
2022-10-10T07:02:07.379Z,3.10
2022-10-10T07:04:54.182Z,3.43
2022-10-10T07:07:42.537Z,2.93
2022-10-10T07:10:29.027Z,3.10
2022-10-10T07:13:16.078Z,2.40
2022-10-10T07:16:03.117Z,2.93
2022-10-10T07:18:50.234Z,3.00
2022-10-10T07:21:36.942Z,3.10
2022-10-10T07:24:25.459Z,2.90
2022-10-10T07:27:12.412Z,2.63
2022-10-10T07:29:59.110Z,2.87
2022-10-10T07:32:45.977Z,2.77
2022-10-10T07:35:32.792Z,2.90
2022-10-10T07:38:19.612Z,3.13
2022-10-10T07:41:09.189Z,2.77
2022-10-10T07:43:56.964Z,3.07
2022-10-10T07:46:43.664Z,2.97
2022-10-10T07:49:30.482Z,2.83
2022-10-10T07:52:17.751Z,3.20
2022-10-10T07:55:05.580Z,3.13
2022-10-10T07:57:53.796Z,2.90
2022-10-10T08:00:42.240Z,2.90
2022-10-10T08:03:28.777Z,2.97
2022-10-10T08:06:17.445Z,3.17
2022-10-10T08:09:04.253Z,2.67
2022-10-10T08:11:50.998Z,2.80
2022-10-10T08:14:39.824Z,2.50
2022-10-10T08:17:26.288Z,3.10
2022-10-10T08:20:13.152Z,3.20
2022-10-10T08:23:00.124Z,3.20
2022-10-10T08:25:46.956Z,3.27
2022-10-10T08:28:34.133Z,3.30
2022-10-10T08:31:24.021Z,2.93
2022-10-10T08:34:10.754Z,3.43
2022-10-10T08:36:57.534Z,3.40
2022-10-10T08:39:44.271Z,3.13
2022-10-10T08:42:35.093Z,4.23
2022-10-10T08:45:25.696Z,3.20
2022-10-10T08:48:17.878Z,3.17
2022-10-10T08:51:10.959Z,3.20
2022-10-10T08:54:00.610Z,3.10
2022-10-10T08:56:48.687Z,2.97
2022-10-10T08:59:39.742Z,3.53
2022-10-10T09:02:43.898Z,3.40
2022-10-10T09:05:55.169Z,2.53
2022-10-10T09:08:50.818Z,3.07
2022-10-10T09:11:50.026Z,3.00
2022-10-10T09:14:41.101Z,3.00
2022-10-10T09:17:39.002Z,2.70
2022-10-10T09:20:46.513Z,3.17
2022-10-10T09:23:39.696Z,2.60
2022-10-10T09:26:28.697Z,2.93
2022-10-10T09:29:31.213Z,2.73
2022-10-10T09:32:22.523Z,2.47
2022-10-10T09:35:17.762Z,2.90
2022-10-10T09:38:23.761Z,2.83
2022-10-10T09:41:20.856Z,2.70
2022-10-10T09:44:12.066Z,2.80
2022-10-10T09:46:59.716Z,2.53
2022-10-10T09:49:47.045Z,2.97
2022-10-10T09:52:33.684Z,2.77
2022-10-10T09:55:26.614Z,2.77
2022-10-10T09:58:21.401Z,3.20
2022-10-10T10:01:14.978Z,2.80
2022-10-10T10:04:29.676Z,3.17
2022-10-10T10:07:23.555Z,2.43
2022-10-10T10:10:18.660Z,2.87
2022-10-10T10:13:16.213Z,2.60
2022-10-10T10:16:10.228Z,2.97
2022-10-10T10:18:57.072Z,2.90
2022-10-10T10:21:50.718Z,2.40
2022-10-10T10:24:37.497Z,3.27
2022-10-10T10:27:25.978Z,2.80
2022-10-10T10:30:26.165Z,2.53
2022-10-10T10:33:20.385Z,2.40
2022-10-10T10:36:24.674Z,2.83
2022-10-10T10:39:26.321Z,2.33
2022-10-10T10:42:24.352Z,2.63
2022-10-10T10:45:18.201Z,2.50
2022-10-10T10:48:19.639Z,2.43
2022-10-10T10:51:23.535Z,2.30
2022-10-10T10:54:24.443Z,2.27
2022-10-10T10:57:32.009Z,1.90
2022-10-10T11:01:19.921Z,2.47
2022-10-10T11:05:15.727Z,2.53
2022-10-10T11:07:18.371Z,2.40
2022-10-10T11:10:15.428Z,2.47
2022-10-10T11:13:13.085Z,2.10
2022-10-10T11:16:24.421Z,2.00
2022-10-10T11:19:26.962Z,2.77
2022-10-10T11:22:16.859Z,2.40
2022-10-10T11:25:14.471Z,2.30
2022-10-10T11:28:06.326Z,2.40
2022-10-10T11:30:58.902Z,2.33
2022-10-10T11:33:49.988Z,2.40
2022-10-10T11:36:40.174Z,1.90
2022-10-10T11:39:34.502Z,2.37
2022-10-10T11:42:25.339Z,2.07
2022-10-10T11:45:18.003Z,2.40
2022-10-10T11:48:18.277Z,2.47
2022-10-10T11:51:16.908Z,2.27
2022-10-10T11:54:09.640Z,2.27
2022-10-10T11:57:01.927Z,2.10
2022-10-10T11:59:54.296Z,2.30
2022-10-10T12:02:42.386Z,2.30
2022-10-10T12:05:31.166Z,2.00
2022-10-10T12:08:23.364Z,2.20
2022-10-10T12:11:18.502Z,2.30
2022-10-10T12:14:09.750Z,2.20
2022-10-10T12:16:57.448Z,2.37
2022-10-10T12:19:44.358Z,2.17
2022-10-10T12:22:31.076Z,2.30
2022-10-10T12:25:38.149Z,2.57
2022-10-10T12:28:28.199Z,2.20
2022-10-10T12:31:31.300Z,2.40
2022-10-10T12:34:42.240Z,2.60
2022-10-10T12:37:30.689Z,2.50
2022-10-10T12:40:23.235Z,2.80
2022-10-10T12:43:26.399Z,2.20
2022-10-10T12:46:22.855Z,2.50
2022-10-10T12:49:20.435Z,2.70
2022-10-10T12:52:12.879Z,2.43
2022-10-10T12:55:07.047Z,2.93
2022-10-10T12:57:56.056Z,5.53
2022-10-10T13:00:46.266Z,2.83
2022-10-10T13:03:37.413Z,3.50
2022-10-10T13:06:35.859Z,3.30
2022-10-10T13:09:28.043Z,3.03
2022-10-10T13:12:25.379Z,3.17
2022-10-10T13:15:20.408Z,2.67
2022-10-10T13:18:08.603Z,2.80
2022-10-10T13:20:57.467Z,2.80
2022-10-10T13:26:55.364Z,2.57
2022-10-10T13:29:42.239Z,3.17
2022-10-10T13:32:32.666Z,2.90
2022-10-10T13:35:23.887Z,3.17
2022-10-10T13:38:14.280Z,2.60
2022-10-10T13:41:04.180Z,2.53
2022-10-10T13:43:52.277Z,3.03
2022-10-10T13:46:39.036Z,2.70
2022-10-10T13:49:27.178Z,2.70
2022-10-10T13:52:24.610Z,3.10
2022-10-10T13:55:25.663Z,3.10
2022-10-10T13:58:12.349Z,3.43
2022-10-10T14:01:01.769Z,3.33
2022-10-10T14:03:50.041Z,2.73
2022-10-10T14:06:37.098Z,2.80
2022-10-10T14:09:29.455Z,2.70
2022-10-10T14:12:20.604Z,3.10
2022-10-10T14:15:34.918Z,2.40
2022-10-10T14:18:23.721Z,2.73
2022-10-10T14:21:10.498Z,2.90
2022-10-10T14:23:57.134Z,2.80
2022-10-10T14:26:45.278Z,3.20
2022-10-10T14:29:31.990Z,3.07
2022-10-10T14:32:19.495Z,3.00
2022-10-10T14:35:07.178Z,2.83
2022-10-10T14:37:53.956Z,2.80
2022-10-10T14:40:42.883Z,2.93
2022-10-10T14:43:30.991Z,2.70
2022-10-10T14:46:20.729Z,2.60
2022-10-10T14:49:12.419Z,2.70
2022-10-10T14:51:59.647Z,3.00
2022-10-10T14:54:46.332Z,2.60
2022-10-10T14:57:33.228Z,2.80
2022-10-10T15:00:27.880Z,2.90
2022-10-10T15:03:17.508Z,3.10
2022-10-10T15:06:07.570Z,3.07
2022-10-10T15:08:57.709Z,3.43
2022-10-10T15:11:46.391Z,3.50
2022-10-10T15:14:36.643Z,15.00
2022-10-10T15:17:30.916Z,3.10
2022-10-10T15:20:18.141Z,3.20
2022-10-10T15:23:07.108Z,2.73
2022-10-10T15:25:53.700Z,2.93
2022-10-10T15:28:40.600Z,2.60
2022-10-10T15:31:30.294Z,2.73
2022-10-10T15:34:19.267Z,2.90
2022-10-10T15:37:07.990Z,3.03
2022-10-10T15:39:55.333Z,2.70
2022-10-10T15:42:42.032Z,2.63
2022-10-10T15:45:51.437Z,3.20
2022-10-10T15:48:35.386Z,3.10
2022-10-10T15:51:23.642Z,2.43
2022-10-10T15:54:10.384Z,2.77
2022-10-10T15:56:57.769Z,3.10
2022-10-10T15:59:44.476Z,2.50
2022-10-10T16:02:31.667Z,3.30
2022-10-10T16:05:18.371Z,2.97
2022-10-10T16:08:07.553Z,2.67
2022-10-10T16:10:54.255Z,3.10
2022-10-10T16:13:42.524Z,3.10
2022-10-10T16:16:29.325Z,3.33
2022-10-10T16:19:16.036Z,3.07
2022-10-10T16:22:02.981Z,3.00
2022-10-10T16:25:10.235Z,3.17
2022-10-10T16:27:57.453Z,3.60
2022-10-10T16:30:44.393Z,2.77
2022-10-10T16:33:32.589Z,2.87
2022-10-10T16:36:21.268Z,3.30
2022-10-10T16:39:08.081Z,3.20
2022-10-10T16:41:56.164Z,2.97
2022-10-10T16:44:43.172Z,2.93
2022-10-10T16:47:29.626Z,3.07
2022-10-10T16:50:16.996Z,2.77
2022-10-10T16:53:03.711Z,3.07
2022-10-10T16:55:50.362Z,2.87
2022-10-10T16:58:40.327Z,3.27
2022-10-10T17:01:27.030Z,3.23
2022-10-10T17:04:13.771Z,3.60
2022-10-10T17:07:00.491Z,3.13
2022-10-10T17:09:47.260Z,3.20
2022-10-10T17:12:33.981Z,3.47
2022-10-10T17:15:22.697Z,3.10
2022-10-10T17:18:09.987Z,3.47
2022-10-10T17:20:56.653Z,3.73
2022-10-10T17:23:43.607Z,3.23
2022-10-10T17:26:30.280Z,3.30
2022-10-10T17:29:16.983Z,3.47
2022-10-10T17:32:06.669Z,4.10
2022-10-10T17:34:55.742Z,3.80
2022-10-10T17:37:42.294Z,3.87
2022-10-10T17:40:29.204Z,4.20
2022-10-10T17:43:16.120Z,3.07
2022-10-10T17:46:29.046Z,3.63
2022-10-10T17:49:13.172Z,4.03
2022-10-10T17:51:59.708Z,3.37
2022-10-10T17:54:46.888Z,3.80
2022-10-10T17:57:34.671Z,3.97
2022-10-10T18:00:21.459Z,3.60
2022-10-10T18:03:09.023Z,3.53
2022-10-10T18:05:57.099Z,3.57
2022-10-10T18:08:44.076Z,3.60
2022-10-10T18:11:31.993Z,3.53
2022-10-10T18:14:18.592Z,3.90
2022-10-10T18:17:05.372Z,4.13
2022-10-10T18:19:52.120Z,3.90
2022-10-10T18:22:40.325Z,4.03
2022-10-10T18:25:27.860Z,3.90
2022-10-10T18:28:14.560Z,4.07
2022-10-10T18:31:01.516Z,3.70
2022-10-10T18:33:48.413Z,3.83
2022-10-10T18:36:37.709Z,4.47
2022-10-10T18:39:29.459Z,4.63
2022-10-10T18:42:18.932Z,4.40
2022-10-10T18:45:06.576Z,3.80
2022-10-10T18:47:53.324Z,5.10
2022-10-10T18:50:40.111Z,4.40
2022-10-10T18:53:26.835Z,4.53
2022-10-10T18:56:21.696Z,4.67
2022-10-10T18:59:13.207Z,5.30
2022-10-10T19:02:00.680Z,5.10
2022-10-10T19:04:48.438Z,5.03
2022-10-10T19:07:35.236Z,4.97
2022-10-10T19:10:23.744Z,5.33
2022-10-10T19:13:11.693Z,5.90
2022-10-10T19:16:03.688Z,5.63
2022-10-10T19:18:50.368Z,5.37
2022-10-10T19:21:39.345Z,5.37
2022-10-10T19:24:26.212Z,5.53
2022-10-10T19:27:13.032Z,5.17
2022-10-10T19:30:01.130Z,5.80
2022-10-10T19:35:40.938Z,5.37
2022-10-10T19:38:27.546Z,5.53
2022-10-10T19:41:15.305Z,6.00
2022-10-10T19:44:05.271Z,5.80
2022-10-10T19:46:54.822Z,5.27
2022-10-10T19:49:41.372Z,5.73
2022-10-10T19:52:28.030Z,6.20
2022-10-10T19:55:14.718Z,5.70
2022-10-10T19:58:01.529Z,5.97
2022-10-10T20:00:51.451Z,6.50
2022-10-10T20:03:39.861Z,5.27
2022-10-10T20:06:27.728Z,6.17
2022-10-10T20:09:14.473Z,6.57
2022-10-10T20:12:01.323Z,6.67
2022-10-10T20:14:47.988Z,6.50
2022-10-10T20:17:34.781Z,6.70
2022-10-10T20:20:22.875Z,6.30
2022-10-10T20:23:09.850Z,6.83
2022-10-10T20:25:57.264Z,8.17
2022-10-10T20:28:44.796Z,7.57
2022-10-10T20:31:35.000Z,8.13
2022-10-10T20:34:21.666Z,7.80
2022-10-10T20:37:09.905Z,8.20
2022-10-10T20:39:56.640Z,7.70
2022-10-10T20:42:43.560Z,7.37
2022-10-10T20:45:30.259Z,6.73
2022-10-10T20:48:17.040Z,6.10
2022-10-10T20:51:06.009Z,6.07
2022-10-10T20:53:57.214Z,4.57
2022-10-10T20:56:44.927Z,3.97
2022-10-10T20:59:31.559Z,4.23
2022-10-10T21:02:19.537Z,4.30
2022-10-10T21:05:06.772Z,3.50
2022-10-10T21:07:53.316Z,3.90
2022-10-10T21:10:43.098Z,3.37
2022-10-10T21:13:29.993Z,3.20
2022-10-10T21:16:19.862Z,3.50
2022-10-10T21:19:09.272Z,3.27
2022-10-10T21:21:55.727Z,3.40
2022-10-10T21:24:42.585Z,3.10
2022-10-10T21:27:30.704Z,3.30
2022-10-10T21:30:17.720Z,3.37
2022-10-10T21:33:04.369Z,3.30
2022-10-10T21:35:52.064Z,3.40
2022-10-10T21:38:39.342Z,3.57
2022-10-10T21:41:26.289Z,3.00
2022-10-10T21:44:15.984Z,3.47
2022-10-10T21:47:02.951Z,3.40
2022-10-10T21:49:49.678Z,3.90
2022-10-10T21:52:36.382Z,3.10
2022-10-10T21:55:23.601Z,4.30
2022-10-10T21:58:09.964Z,3.63
2022-10-10T22:00:58.970Z,3.27
2022-10-10T22:03:47.709Z,3.60
2022-10-10T22:06:34.754Z,3.27
2022-10-10T22:09:21.722Z,3.30
2022-10-10T22:12:08.397Z,3.80
2022-10-10T22:14:55.238Z,3.23
2022-10-10T22:17:44.913Z,3.30
2022-10-10T22:20:31.656Z,4.47
2022-10-10T22:23:18.530Z,3.40
2022-10-10T22:26:10.843Z,3.83
2022-10-10T22:28:58.560Z,3.40
2022-10-10T22:31:45.197Z,3.37
2022-10-10T22:34:33.333Z,3.87
2022-10-10T22:37:20.241Z,3.57
2022-10-10T22:40:08.037Z,3.60
2022-10-10T22:42:54.996Z,3.50
2022-10-10T22:45:41.785Z,2.73
2022-10-10T22:48:28.329Z,2.87
2022-10-10T22:51:18.643Z,3.37
2022-10-10T22:54:05.370Z,3.47
2022-10-10T22:56:51.972Z,2.50
2022-10-10T22:59:39.360Z,3.23
2022-10-10T23:02:25.823Z,3.07
2022-10-10T23:05:12.943Z,2.90
2022-10-10T23:08:00.751Z,2.77
2022-10-10T23:10:48.098Z,3.17
2022-10-10T23:13:34.922Z,2.77
2022-10-10T23:16:21.801Z,2.83
2022-10-10T23:19:08.687Z,2.80
2022-10-10T23:21:55.507Z,2.60
2022-10-10T23:24:43.788Z,2.47
2022-10-10T23:27:30.570Z,2.97
2022-10-10T23:30:17.536Z,2.47
2022-10-10T23:33:04.529Z,2.00
2022-10-10T23:35:58.543Z,2.20
2022-10-10T23:38:45.194Z,2.30
2022-10-10T23:41:33.025Z,2.10
2022-10-10T23:44:19.833Z,2.13
2022-10-10T23:47:06.759Z,1.97
2022-10-10T23:49:53.371Z,2.10
2022-10-10T23:52:40.636Z,2.00
2022-10-10T23:55:27.614Z,1.83
2022-10-10T23:58:15.898Z,1.90
